createdAt,value
2022-09-03T00:00:19.758Z,15.18
2022-09-03T00:03:04.971Z,15.19
2022-09-03T00:05:49.082Z,15.19
2022-09-03T00:08:40.706Z,15.18
2022-09-03T00:11:16.066Z,15.19
2022-09-03T00:13:59.275Z,15.20
2022-09-03T00:16:48.544Z,15.21
2022-09-03T00:19:20.984Z,15.22
2022-09-03T00:21:53.387Z,15.21
2022-09-03T00:24:26.169Z,15.22
2022-09-03T00:27:03.470Z,15.22
2022-09-03T00:29:49.453Z,15.22
2022-09-03T00:32:24.197Z,15.22
2022-09-03T00:34:59.242Z,15.22
2022-09-03T00:37:28.820Z,15.21
2022-09-03T00:40:03.628Z,15.22
2022-09-03T00:42:44.009Z,15.23
2022-09-03T00:45:18.680Z,15.22
2022-09-03T00:48:00.736Z,15.22
2022-09-03T00:50:31.982Z,15.22
2022-09-03T00:53:17.775Z,15.23
2022-09-03T00:56:22.502Z,15.22
2022-09-03T00:59:15.562Z,15.22
2022-09-03T01:02:01.580Z,15.22
2022-09-03T01:04:38.668Z,15.22
2022-09-03T01:07:34.563Z,15.23
2022-09-03T01:10:26.393Z,15.25
2022-09-03T01:13:06.751Z,15.27
2022-09-03T01:16:12.577Z,15.27
2022-09-03T01:19:05.769Z,15.26
2022-09-03T01:21:58.924Z,15.27
2022-09-03T01:25:04.705Z,15.27
2022-09-03T01:27:39.410Z,15.28
2022-09-03T01:30:18.646Z,15.29
2022-09-03T01:33:08.216Z,15.30
2022-09-03T01:35:46.945Z,15.31
2022-09-03T01:38:31.088Z,15.31
2022-09-03T01:41:36.029Z,15.30
2022-09-03T01:44:25.096Z,15.29
2022-09-03T01:47:16.917Z,15.29
2022-09-03T01:49:58.202Z,15.28
2022-09-03T01:52:45.013Z,15.28
2022-09-03T01:55:25.373Z,15.28
2022-09-03T01:57:59.778Z,15.26
2022-09-03T02:00:30.883Z,15.23
2022-09-03T02:03:05.878Z,15.21
2022-09-03T02:05:35.475Z,15.19
2022-09-03T02:08:09.113Z,15.18
2022-09-03T02:10:48.717Z,15.18
2022-09-03T02:13:26.046Z,15.17
2022-09-03T02:15:58.282Z,15.17
2022-09-03T02:18:31.776Z,15.18
2022-09-03T02:21:01.075Z,15.19
2022-09-03T02:23:30.079Z,15.19
2022-09-03T02:26:03.873Z,15.19
2022-09-03T02:28:33.381Z,15.18
2022-09-03T02:31:01.661Z,15.18
2022-09-03T02:33:32.329Z,15.19
2022-09-03T02:36:00.674Z,15.18
2022-09-03T02:38:28.786Z,15.18
2022-09-03T02:40:57.022Z,15.17
2022-09-03T02:43:33.030Z,15.18
2022-09-03T02:46:04.403Z,15.19
2022-09-03T02:48:33.418Z,15.20
2022-09-03T02:51:01.700Z,15.20
2022-09-03T02:53:43.393Z,15.21
2022-09-03T02:56:12.070Z,15.22
2022-09-03T02:58:40.250Z,15.24
2022-09-03T03:01:08.682Z,15.24
2022-09-03T03:03:36.910Z,15.25
2022-09-03T03:06:07.195Z,15.25
2022-09-03T03:08:35.508Z,15.25
2022-09-03T03:11:03.681Z,15.25
2022-09-03T03:13:32.374Z,15.24
2022-09-03T03:16:06.483Z,15.23
2022-09-03T03:18:35.367Z,15.22
2022-09-03T03:21:11.737Z,15.22
2022-09-03T03:23:40.606Z,15.23
2022-09-03T03:26:12.202Z,15.24
2022-09-03T03:28:42.646Z,15.24
2022-09-03T03:31:17.146Z,15.24
2022-09-03T03:33:50.625Z,15.26
2022-09-03T03:36:18.903Z,15.29
2022-09-03T03:38:47.078Z,15.33
2022-09-03T03:41:22.117Z,15.35
2022-09-03T03:43:55.248Z,15.36
2022-09-03T03:46:24.640Z,15.35
2022-09-03T03:48:53.208Z,15.35
2022-09-03T03:51:21.224Z,15.35
2022-09-03T03:53:49.741Z,15.34
2022-09-03T03:56:17.850Z,15.33
2022-09-03T03:58:45.987Z,15.33
2022-09-03T04:01:17.998Z,15.34
2022-09-03T04:03:47.261Z,15.35
2022-09-03T04:06:19.011Z,15.36
2022-09-03T04:08:50.531Z,15.37
2022-09-03T04:11:21.236Z,15.38
2022-09-03T04:13:50.422Z,15.39
2022-09-03T04:16:28.775Z,15.41
2022-09-03T04:18:57.903Z,15.42
2022-09-03T04:21:28.760Z,15.41
2022-09-03T04:23:58.660Z,15.38
2022-09-03T04:26:32.569Z,15.36
2022-09-03T04:29:06.786Z,15.34
2022-09-03T04:31:36.077Z,15.32
2022-09-03T04:34:06.710Z,15.31
2022-09-03T04:36:35.403Z,15.32
2022-09-03T04:39:03.677Z,15.33
2022-09-03T04:41:32.668Z,15.33
2022-09-03T04:44:00.898Z,15.33
2022-09-03T04:46:33.758Z,15.33
2022-09-03T04:49:03.560Z,15.33
2022-09-03T04:51:32.129Z,15.34
2022-09-03T04:54:01.769Z,15.35
2022-09-03T04:56:35.081Z,15.36
2022-09-03T04:59:06.498Z,15.36
2022-09-03T05:01:37.142Z,15.36
2022-09-03T05:04:06.310Z,15.36
2022-09-03T05:06:36.153Z,15.38
2022-09-03T05:09:05.444Z,15.38
2022-09-03T05:11:33.634Z,15.38
2022-09-03T05:14:01.687Z,15.38
2022-09-03T05:16:31.021Z,15.38
2022-09-03T05:19:01.447Z,15.38
2022-09-03T05:21:30.391Z,15.38
2022-09-03T05:24:01.253Z,15.39
2022-09-03T05:26:32.166Z,15.41
2022-09-03T05:29:02.373Z,15.41
2022-09-03T05:31:32.376Z,15.42
2022-09-03T05:34:03.730Z,15.43
2022-09-03T05:36:34.938Z,15.44
2022-09-03T05:39:07.069Z,15.45
2022-09-03T05:41:35.150Z,15.46
2022-09-03T05:44:04.349Z,15.47
2022-09-03T05:46:34.356Z,15.49
2022-09-03T05:49:05.167Z,15.51
2022-09-03T05:51:35.805Z,15.52
2022-09-03T05:54:04.089Z,15.52
2022-09-03T05:56:33.652Z,15.51
2022-09-03T05:59:07.662Z,15.49
2022-09-03T06:01:50.801Z,15.47
2022-09-03T06:04:21.168Z,15.44
2022-09-03T06:06:50.179Z,15.44
2022-09-03T06:09:20.851Z,15.45
2022-09-03T06:11:52.435Z,15.46
2022-09-03T06:14:22.018Z,15.47
2022-09-03T06:16:50.763Z,15.48
2022-09-03T06:19:19.423Z,15.50
2022-09-03T06:21:48.050Z,15.52
2022-09-03T06:24:18.940Z,15.52
2022-09-03T06:26:48.655Z,15.54
2022-09-03T06:29:19.493Z,15.56
2022-09-03T06:31:51.518Z,15.57
2022-09-03T06:34:20.144Z,15.58
2022-09-03T06:36:48.520Z,15.58
2022-09-03T06:39:16.779Z,15.58
2022-09-03T06:41:48.559Z,15.59
2022-09-03T06:44:16.594Z,15.58
2022-09-03T06:46:45.062Z,15.57
2022-09-03T06:49:13.719Z,15.56
2022-09-03T06:51:44.214Z,15.58
2022-09-03T06:54:13.219Z,15.61
2022-09-03T06:56:41.831Z,15.63
2022-09-03T06:59:15.402Z,15.64
2022-09-03T07:01:46.577Z,15.65
2022-09-03T07:04:20.160Z,15.67
2022-09-03T07:06:49.055Z,15.69
2022-09-03T07:09:19.222Z,15.72
2022-09-03T07:11:48.623Z,15.74
2022-09-03T07:14:22.223Z,15.76
2022-09-03T07:16:51.014Z,15.80
2022-09-03T07:19:19.122Z,15.84
2022-09-03T07:21:50.101Z,15.88
2022-09-03T07:24:22.367Z,15.91
2022-09-03T07:26:51.131Z,15.94
2022-09-03T07:29:22.121Z,15.94
2022-09-03T07:31:52.386Z,15.94
2022-09-03T07:34:25.472Z,15.93
2022-09-03T07:36:55.146Z,15.95
2022-09-03T07:39:23.783Z,15.97
2022-09-03T07:41:52.102Z,15.99
2022-09-03T07:44:20.600Z,16.01
2022-09-03T07:46:51.328Z,16.03
2022-09-03T07:49:21.967Z,16.05
2022-09-03T07:51:52.504Z,16.06
2022-09-03T07:54:22.262Z,16.02
2022-09-03T07:56:50.613Z,15.96
2022-09-03T07:59:19.440Z,15.91
2022-09-03T08:01:47.434Z,15.88
2022-09-03T08:04:15.478Z,15.82
2022-09-03T08:06:43.644Z,15.78
2022-09-03T08:09:13.804Z,15.73
2022-09-03T08:11:43.807Z,15.69
2022-09-03T08:14:13.795Z,15.66
2022-09-03T08:16:45.972Z,15.62
2022-09-03T08:19:15.733Z,15.54
2022-09-03T08:21:44.050Z,15.48
2022-09-03T08:24:14.661Z,15.44
2022-09-03T08:26:49.058Z,15.47
2022-09-03T08:29:20.761Z,15.53
2022-09-03T08:31:49.108Z,15.58
2022-09-03T08:34:18.179Z,15.60
2022-09-03T08:36:47.501Z,15.61
2022-09-03T08:39:15.995Z,15.63
2022-09-03T08:41:59.526Z,15.66
2022-09-03T08:44:34.835Z,15.72
2022-09-03T08:47:27.166Z,15.76
2022-09-03T08:50:04.702Z,15.75
2022-09-03T08:52:38.881Z,15.73
2022-09-03T08:55:25.466Z,15.70
2022-09-03T08:57:57.487Z,15.70
2022-09-03T09:00:27.154Z,15.72
2022-09-03T09:03:04.226Z,15.72
2022-09-03T09:05:51.795Z,15.69
2022-09-03T09:08:34.547Z,15.65
2022-09-03T09:12:07.110Z,15.61
2022-09-03T09:14:41.148Z,15.56
2022-09-03T09:17:36.584Z,15.54
2022-09-03T09:20:32.955Z,15.56
2022-09-03T09:23:06.710Z,15.55
2022-09-03T09:25:47.565Z,15.53
2022-09-03T09:28:30.226Z,15.54
2022-09-03T09:30:58.506Z,15.54
2022-09-03T09:33:26.533Z,15.54
2022-09-03T09:35:55.816Z,15.56
2022-09-03T09:38:32.169Z,15.57
2022-09-03T09:41:22.654Z,15.57
2022-09-03T09:44:03.155Z,15.60
2022-09-03T09:46:41.157Z,15.63
2022-09-03T09:49:29.208Z,15.62
2022-09-03T09:52:08.226Z,15.59
2022-09-03T09:54:36.238Z,15.59
2022-09-03T09:57:07.557Z,15.61
2022-09-03T09:59:38.080Z,15.62
2022-09-03T10:02:22.310Z,15.63
2022-09-03T10:04:50.992Z,15.61
2022-09-03T10:07:25.855Z,15.60
2022-09-03T10:10:02.643Z,15.60
2022-09-03T10:12:34.998Z,15.62
2022-09-03T10:15:25.898Z,15.64
2022-09-03T10:18:03.622Z,15.66
2022-09-03T10:20:37.545Z,15.65
2022-09-03T10:23:05.683Z,15.65
2022-09-03T10:25:52.164Z,15.64
2022-09-03T10:28:25.569Z,15.64
2022-09-03T10:31:22.436Z,15.64
2022-09-03T10:34:15.776Z,15.64
2022-09-03T10:37:15.968Z,15.65
2022-09-03T10:40:05.305Z,15.65
2022-09-03T10:42:48.619Z,15.68
2022-09-03T10:45:29.675Z,15.72
2022-09-03T10:48:12.351Z,15.74
2022-09-03T10:50:40.500Z,15.79
2022-09-03T10:53:22.457Z,15.82
2022-09-03T10:56:02.711Z,15.82
2022-09-03T10:58:53.214Z,15.87
2022-09-03T11:01:47.699Z,15.92
2022-09-03T11:04:24.990Z,15.95
2022-09-03T11:06:58.104Z,15.93
2022-09-03T11:09:26.030Z,15.93
2022-09-03T11:12:00.141Z,15.96
2022-09-03T11:14:43.838Z,15.97
2022-09-03T11:17:26.726Z,15.95
2022-09-03T11:20:15.704Z,15.96
2022-09-03T11:22:46.158Z,16.02
2022-09-03T11:25:16.021Z,16.09
2022-09-03T11:27:56.885Z,16.15
2022-09-03T11:30:35.954Z,16.20
2022-09-03T11:33:10.335Z,16.20
2022-09-03T11:35:41.984Z,16.21
2022-09-03T11:38:16.764Z,16.25
2022-09-03T11:41:00.260Z,16.30
2022-09-03T11:43:31.506Z,16.33
2022-09-03T11:46:28.246Z,16.37
2022-09-03T11:49:26.053Z,16.40
2022-09-03T11:52:02.519Z,16.39
2022-09-03T11:54:44.764Z,16.39
2022-09-03T11:57:15.783Z,16.38
2022-09-03T11:59:44.800Z,16.36
2022-09-03T12:02:33.859Z,16.36
2022-09-03T12:05:19.779Z,16.34
2022-09-03T12:08:29.299Z,16.35
2022-09-03T12:11:41.942Z,16.42
2022-09-03T12:14:21.738Z,16.53
2022-09-03T12:17:04.607Z,16.59
2022-09-03T12:19:54.200Z,16.65
2022-09-03T12:22:25.746Z,16.72
2022-09-03T12:24:53.770Z,16.79
2022-09-03T12:27:24.821Z,16.88
2022-09-03T12:30:01.643Z,16.95
2022-09-03T12:32:38.311Z,17.04
2022-09-03T12:38:12.823Z,17.11
2022-09-03T12:43:40.809Z,17.12
2022-09-03T12:46:15.815Z,17.13
2022-09-03T12:51:53.194Z,17.29
2022-09-03T12:54:23.480Z,17.33
2022-09-03T12:56:58.721Z,17.35
2022-09-03T12:59:32.204Z,17.35
2022-09-03T13:02:12.393Z,17.38
2022-09-03T13:04:41.696Z,17.41
2022-09-03T13:07:49.098Z,17.47
2022-09-03T13:10:27.995Z,17.53
2022-09-03T13:13:01.514Z,17.58
2022-09-03T13:15:31.128Z,17.62
2022-09-03T13:18:13.833Z,17.66
2022-09-03T13:21:12.022Z,17.71
2022-09-03T13:23:49.197Z,17.77
2022-09-03T13:26:26.080Z,17.81
2022-09-03T13:29:00.229Z,17.84
2022-09-03T13:31:45.410Z,17.85
2022-09-03T13:34:25.831Z,17.85
2022-09-03T13:37:08.849Z,17.83
2022-09-03T13:39:52.864Z,17.82
2022-09-03T13:42:25.577Z,17.88
2022-09-03T13:45:31.635Z,17.97
2022-09-03T13:48:27.053Z,18.07
2022-09-03T13:51:18.291Z,18.22
2022-09-03T13:53:49.203Z,18.42
2022-09-03T13:56:44.515Z,18.56
2022-09-03T13:59:31.248Z,18.71
2022-09-03T14:02:08.159Z,18.83
2022-09-03T14:05:26.667Z,18.90
2022-09-03T14:08:08.598Z,19.24
2022-09-03T14:10:55.058Z,19.90
2022-09-03T14:13:22.976Z,20.59
2022-09-03T14:16:06.381Z,21.17
2022-09-03T14:18:52.759Z,21.77
2022-09-03T14:21:35.474Z,22.31
2022-09-03T14:24:15.735Z,22.71
2022-09-03T14:26:51.593Z,23.08
2022-09-03T14:29:21.707Z,23.42
2022-09-03T14:32:11.488Z,23.77
2022-09-03T14:35:13.299Z,24.11
2022-09-03T14:38:14.570Z,24.38
2022-09-03T14:40:47.705Z,24.68
2022-09-03T14:43:46.579Z,24.90
2022-09-03T14:46:32.706Z,24.99
2022-09-03T14:49:21.129Z,25.07
2022-09-03T14:52:26.983Z,25.11
2022-09-03T14:55:29.974Z,25.14
2022-09-03T14:58:35.317Z,25.18
2022-09-03T15:01:35.692Z,24.97
2022-09-03T15:04:21.438Z,24.55
2022-09-03T15:07:25.388Z,24.15
2022-09-03T15:10:19.307Z,23.72
2022-09-03T15:12:58.044Z,23.30
2022-09-03T15:16:01.835Z,22.91
2022-09-03T15:18:45.826Z,22.49
2022-09-03T15:21:41.931Z,22.13
2022-09-03T15:24:44.956Z,21.79
2022-09-03T15:27:20.981Z,21.47
2022-09-03T15:29:50.788Z,21.22
2022-09-03T15:33:08.430Z,21.01
2022-09-03T15:35:46.126Z,20.79
2022-09-03T15:39:02.013Z,20.65
2022-09-03T15:41:49.040Z,20.57
2022-09-03T15:44:20.209Z,20.53
2022-09-03T15:47:29.001Z,20.55
2022-09-03T15:50:29.150Z,20.57
2022-09-03T15:52:57.201Z,20.57
2022-09-03T15:55:43.602Z,20.54
2022-09-03T15:58:36.040Z,20.43
2022-09-03T16:01:21.776Z,20.30
2022-09-03T16:03:50.030Z,20.17
2022-09-03T16:06:39.990Z,20.03
2022-09-03T16:09:28.029Z,19.89
2022-09-03T16:12:37.266Z,19.77
2022-09-03T16:15:15.545Z,19.63
2022-09-03T16:18:13.648Z,19.50
2022-09-03T16:20:46.432Z,19.36
2022-09-03T16:23:26.692Z,19.17
2022-09-03T16:26:08.074Z,18.94
2022-09-03T16:28:58.878Z,18.75
2022-09-03T16:31:40.120Z,18.60
2022-09-03T16:34:19.078Z,18.47
2022-09-03T16:37:21.367Z,18.37
2022-09-03T16:40:26.805Z,18.25
2022-09-03T16:43:41.375Z,18.10
2022-09-03T16:46:28.387Z,18.00
2022-09-03T16:49:12.649Z,17.92
2022-09-03T16:52:18.601Z,17.85
2022-09-03T16:55:18.825Z,17.79
2022-09-03T16:57:54.536Z,17.78
2022-09-03T17:00:25.555Z,17.75
2022-09-03T17:02:56.498Z,17.74
2022-09-03T17:05:26.504Z,17.74
2022-09-03T17:08:28.536Z,17.71
2022-09-03T17:11:17.909Z,17.68
2022-09-03T17:14:12.612Z,17.66
2022-09-03T17:17:02.418Z,17.62
2022-09-03T17:20:08.255Z,17.59
2022-09-03T17:23:00.728Z,17.56
2022-09-03T17:25:40.743Z,17.52
2022-09-03T17:28:09.629Z,17.48
2022-09-03T17:30:58.794Z,17.44
2022-09-03T17:34:05.070Z,17.42
2022-09-03T17:36:38.610Z,17.38
2022-09-03T17:39:12.375Z,17.34
2022-09-03T17:41:58.804Z,17.32
2022-09-03T17:44:50.401Z,17.30
2022-09-03T17:47:49.499Z,17.28
2022-09-03T17:50:25.077Z,17.27
2022-09-03T17:52:59.926Z,17.29
2022-09-03T17:55:45.458Z,17.32
2022-09-03T17:58:16.539Z,17.34
2022-09-03T18:00:52.352Z,17.35
2022-09-03T18:03:27.589Z,17.36
2022-09-03T18:06:04.710Z,17.34
2022-09-03T18:08:51.794Z,17.33
2022-09-03T18:11:30.717Z,17.32
2022-09-03T18:14:32.608Z,17.32
2022-09-03T18:17:39.258Z,17.29
2022-09-03T18:20:29.244Z,17.25
2022-09-03T18:23:31.158Z,17.21
2022-09-03T18:26:29.903Z,17.18
2022-09-03T18:29:31.049Z,17.14
2022-09-03T18:32:19.224Z,17.10
2022-09-03T18:35:06.718Z,17.04
2022-09-03T18:37:54.455Z,17.00
2022-09-03T18:40:46.996Z,16.98
2022-09-03T18:43:49.995Z,16.98
2022-09-03T18:50:21.371Z,17.00
2022-09-03T18:53:29.548Z,16.99
2022-09-03T18:56:29.238Z,16.96
2022-09-03T18:59:18.783Z,16.92
2022-09-03T19:02:05.477Z,16.89
2022-09-03T19:05:02.734Z,16.87
2022-09-03T19:08:01.644Z,16.86
2022-09-03T19:11:01.437Z,16.85
2022-09-03T19:13:56.853Z,16.86
2022-09-03T19:16:54.008Z,16.86
2022-09-03T19:19:58.097Z,16.85
2022-09-03T19:22:59.482Z,16.83
2022-09-03T19:25:48.643Z,16.77
2022-09-03T19:28:48.456Z,16.73
2022-09-03T19:32:05.972Z,16.70
2022-09-03T19:35:36.534Z,16.65
2022-09-03T19:38:32.457Z,16.61
2022-09-03T19:41:36.873Z,16.58
2022-09-03T19:44:35.873Z,16.55
2022-09-03T19:47:24.832Z,16.53
2022-09-03T19:50:40.216Z,16.51
2022-09-03T19:53:33.989Z,16.49
2022-09-03T19:56:37.591Z,16.47
2022-09-03T19:59:33.440Z,16.47
2022-09-03T20:02:20.898Z,16.47
2022-09-03T20:05:16.868Z,16.48
2022-09-03T20:08:08.185Z,16.49
2022-09-03T20:10:37.569Z,16.50
2022-09-03T20:13:05.656Z,16.52
2022-09-03T20:15:40.203Z,16.53
2022-09-03T20:18:31.808Z,16.54
2022-09-03T20:21:33.672Z,16.55
2022-09-03T20:24:04.654Z,16.58
2022-09-03T20:26:50.807Z,16.61
2022-09-03T20:29:31.267Z,16.62
2022-09-03T20:32:17.211Z,16.62
2022-09-03T20:35:05.831Z,16.62
2022-09-03T20:37:56.312Z,16.61
2022-09-03T20:40:33.983Z,16.60
2022-09-03T20:43:34.362Z,16.60
2022-09-03T20:46:26.087Z,16.62
2022-09-03T20:49:13.190Z,16.63
2022-09-03T20:51:56.512Z,16.63
2022-09-03T20:54:44.008Z,16.64
2022-09-03T20:57:31.664Z,16.65
2022-09-03T21:00:22.162Z,16.65
2022-09-03T21:03:17.678Z,16.62
2022-09-03T21:06:04.102Z,16.60
2022-09-03T21:08:44.336Z,16.58
2022-09-03T21:11:28.425Z,16.58
2022-09-03T21:14:03.585Z,16.61
2022-09-03T21:16:50.230Z,16.61
2022-09-03T21:19:25.985Z,16.63
2022-09-03T21:22:06.854Z,16.63
2022-09-03T21:24:49.467Z,16.63
2022-09-03T21:27:24.354Z,16.63
2022-09-03T21:30:04.239Z,16.64
2022-09-03T21:32:44.606Z,16.63
2022-09-03T21:35:33.261Z,16.61
2022-09-03T21:38:07.866Z,16.60
2022-09-03T21:40:41.610Z,16.59
2022-09-03T21:43:18.401Z,16.59
2022-09-03T21:46:02.207Z,16.58
2022-09-03T21:48:43.313Z,16.57
2022-09-03T21:51:36.243Z,16.55
2022-09-03T21:54:15.403Z,16.52
2022-09-03T21:57:14.322Z,16.50
2022-09-03T22:00:01.183Z,16.50
2022-09-03T22:02:32.949Z,16.51
2022-09-03T22:05:03.663Z,16.52
2022-09-03T22:07:53.332Z,16.52
2022-09-03T22:10:39.213Z,16.51
2022-09-03T22:13:28.712Z,16.52
2022-09-03T22:16:23.907Z,16.54
2022-09-03T22:18:52.406Z,16.51
2022-09-03T22:21:23.605Z,16.48
2022-09-03T22:23:57.659Z,16.47
2022-09-03T22:26:31.422Z,16.46
2022-09-03T22:29:29.359Z,16.44
2022-09-03T22:32:02.430Z,16.41
2022-09-03T22:34:50.367Z,16.38
2022-09-03T22:37:23.049Z,16.36
2022-09-03T22:39:59.915Z,16.34
2022-09-03T22:42:49.598Z,16.33
2022-09-03T22:45:46.096Z,16.33
2022-09-03T22:48:32.341Z,16.34
2022-09-03T22:51:02.864Z,16.34
2022-09-03T22:53:33.598Z,16.32
2022-09-03T22:56:10.790Z,16.30
2022-09-03T22:58:46.848Z,16.28
2022-09-03T23:01:44.412Z,16.26
2022-09-03T23:04:18.615Z,16.24
2022-09-03T23:06:53.408Z,16.21
2022-09-03T23:09:25.040Z,16.20
2022-09-03T23:12:11.140Z,16.16
2022-09-03T23:14:51.660Z,16.13
2022-09-03T23:22:42.384Z,16.05
2022-09-03T23:25:27.067Z,16.05
2022-09-03T23:28:26.679Z,16.06
2022-09-03T23:31:10.951Z,16.08
2022-09-03T23:33:39.818Z,16.08
2022-09-03T23:36:58.253Z,16.09
2022-09-03T23:40:22.440Z,16.13
2022-09-03T23:42:55.241Z,16.17
2022-09-03T23:45:40.902Z,16.21
2022-09-03T23:48:14.937Z,16.20
2022-09-03T23:51:15.877Z,16.19
2022-09-03T23:54:06.073Z,16.20
2022-09-03T23:56:49.914Z,16.20
2022-09-03T23:59:41.027Z,16.21
